createdAt,value
2023-04-18T00:00:51.908Z,96148.97
2023-04-18T00:03:18.847Z,96143.84
2023-04-18T00:05:45.578Z,96153.94
2023-04-18T00:08:12.196Z,96154.84
2023-04-18T00:10:38.674Z,96159.91
2023-04-18T00:13:05.256Z,96146.13
2023-04-18T00:15:31.754Z,96149.06
2023-04-18T00:17:58.620Z,96142.63
2023-04-18T00:20:25.211Z,96149.00
2023-04-18T00:22:52.792Z,96142.63
2023-04-18T00:25:19.577Z,96138.25
2023-04-18T00:27:46.398Z,96145.00
2023-04-18T00:30:13.008Z,96153.31
2023-04-18T00:32:39.756Z,96142.97
2023-04-18T00:35:06.293Z,96120.72
2023-04-18T00:37:32.724Z,96131.88
2023-04-18T00:39:59.554Z,96129.06
2023-04-18T00:42:26.104Z,96127.13
2023-04-18T00:44:52.917Z,96129.63
2023-04-18T00:47:19.488Z,96134.28
2023-04-18T00:49:46.048Z,96134.72
2023-04-18T00:52:12.844Z,96144.47
2023-04-18T00:54:39.484Z,96129.72
2023-04-18T00:57:06.064Z,96129.50
2023-04-18T00:59:32.691Z,96141.31
2023-04-18T01:01:59.334Z,96140.22
2023-04-18T01:04:26.348Z,96138.91
2023-04-18T01:06:52.910Z,96140.28
2023-04-18T01:09:21.219Z,96140.84
2023-04-18T01:11:47.925Z,96122.47
2023-04-18T01:14:14.849Z,96140.03
2023-04-18T01:16:41.554Z,96139.78
2023-04-18T01:19:08.326Z,96147.34
2023-04-18T01:21:34.861Z,96129.25
2023-04-18T01:24:01.419Z,96148.09
2023-04-18T01:26:27.966Z,96132.38
2023-04-18T01:28:54.498Z,96140.91
2023-04-18T01:31:21.174Z,96134.50
2023-04-18T01:33:47.842Z,96168.25
2023-04-18T01:36:14.602Z,96138.97
2023-04-18T01:38:41.363Z,96132.91
2023-04-18T01:41:08.711Z,96135.41
2023-04-18T01:43:35.344Z,96133.81
2023-04-18T01:46:01.810Z,96131.91
2023-04-18T01:48:29.568Z,96128.84
2023-04-18T01:50:56.543Z,96128.66
2023-04-18T01:53:23.169Z,96128.94
2023-04-18T01:55:49.652Z,96125.66
2023-04-18T01:58:16.301Z,96129.69
2023-04-18T02:00:43.120Z,96124.75
2023-04-18T02:03:09.817Z,96132.78
2023-04-18T02:05:36.422Z,96124.34
2023-04-18T02:08:03.212Z,96137.47
2023-04-18T02:10:29.781Z,96135.91
2023-04-18T02:12:58.154Z,96139.22
2023-04-18T02:15:25.014Z,96146.16
2023-04-18T02:17:51.527Z,96148.00
2023-04-18T02:20:18.305Z,96158.63
2023-04-18T02:22:45.231Z,96158.41
2023-04-18T02:25:12.065Z,96158.06
2023-04-18T02:27:38.824Z,96164.31
2023-04-18T02:30:05.407Z,96165.03
2023-04-18T02:32:31.901Z,96159.53
2023-04-18T02:34:58.488Z,96163.91
2023-04-18T02:37:24.978Z,96159.94
2023-04-18T02:39:52.516Z,96163.56
2023-04-18T02:42:20.090Z,96161.22
2023-04-18T02:44:48.683Z,96163.41
2023-04-18T02:47:16.164Z,96167.38
2023-04-18T02:49:45.221Z,96166.91
2023-04-18T02:52:11.760Z,96168.16
2023-04-18T02:54:40.415Z,96173.47
2023-04-18T02:57:07.067Z,96161.03
2023-04-18T02:59:33.622Z,96166.13
2023-04-18T03:02:00.519Z,96177.50
2023-04-18T03:04:27.123Z,96167.84
2023-04-18T03:06:53.681Z,96165.72
2023-04-18T03:09:20.274Z,96172.69
2023-04-18T03:11:46.706Z,96171.38
2023-04-18T03:14:13.443Z,96170.50
2023-04-18T03:16:40.085Z,96166.44
2023-04-18T03:19:06.717Z,96165.97
2023-04-18T03:21:33.506Z,96159.75
2023-04-18T03:24:01.543Z,96154.56
2023-04-18T03:26:28.037Z,96162.38
2023-04-18T03:28:54.849Z,96154.75
2023-04-18T03:31:21.748Z,96159.03
2023-04-18T03:33:48.692Z,96161.09
2023-04-18T03:36:15.218Z,96162.56
2023-04-18T03:38:41.812Z,96165.84
2023-04-18T03:41:08.423Z,96160.41
2023-04-18T03:43:34.921Z,96165.50
2023-04-18T03:46:01.495Z,96170.66
2023-04-18T03:48:28.051Z,96163.69
2023-04-18T03:50:55.622Z,96168.75
2023-04-18T03:53:22.414Z,96166.13
2023-04-18T03:55:48.924Z,96160.66
2023-04-18T03:58:15.528Z,96162.78
2023-04-18T04:00:42.121Z,96158.66
2023-04-18T04:03:09.832Z,96161.22
2023-04-18T04:05:37.483Z,96162.38
2023-04-18T04:08:03.970Z,96161.84
2023-04-18T04:10:30.769Z,96162.50
2023-04-18T04:12:57.278Z,96166.50
2023-04-18T04:15:24.049Z,96159.44
2023-04-18T04:17:50.671Z,96169.88
2023-04-18T04:20:17.605Z,96168.25
2023-04-18T04:22:44.430Z,96179.38
2023-04-18T04:25:11.041Z,96176.59
2023-04-18T04:27:37.522Z,96176.78
2023-04-18T04:30:04.173Z,96173.13
2023-04-18T04:32:30.774Z,96174.47
2023-04-18T04:34:57.315Z,96181.34
2023-04-18T04:37:23.885Z,96187.38
2023-04-18T04:39:50.701Z,96185.78
2023-04-18T04:42:17.647Z,96186.94
2023-04-18T04:44:44.188Z,96184.34
2023-04-18T04:47:11.114Z,96188.41
2023-04-18T04:49:37.894Z,96187.13
2023-04-18T04:52:04.708Z,96180.63
2023-04-18T04:54:31.346Z,96186.94
2023-04-18T04:56:57.908Z,96190.41
2023-04-18T04:59:24.808Z,96186.94
2023-04-18T05:01:51.477Z,96194.78
2023-04-18T05:04:18.685Z,96193.03
2023-04-18T05:06:45.506Z,96191.91
2023-04-18T05:09:12.837Z,96193.22
2023-04-18T05:11:39.562Z,96189.63
2023-04-18T05:14:06.138Z,96195.06
2023-04-18T05:16:34.025Z,96189.09
2023-04-18T05:19:00.599Z,96192.69
2023-04-18T05:21:27.061Z,96192.22
2023-04-18T05:23:54.464Z,96181.50
2023-04-18T05:26:20.941Z,96184.75
2023-04-18T05:28:50.116Z,96191.59
2023-04-18T05:31:16.937Z,96183.56
2023-04-18T05:33:43.516Z,96189.72
2023-04-18T05:36:10.374Z,96197.44
2023-04-18T05:38:37.206Z,96198.75
2023-04-18T05:41:04.039Z,96195.28
2023-04-18T05:43:30.506Z,96196.88
2023-04-18T05:45:57.925Z,96197.91
2023-04-18T05:48:25.751Z,96196.63
2023-04-18T05:50:52.667Z,96198.72
2023-04-18T05:53:19.510Z,96197.56
2023-04-18T05:55:47.260Z,96199.94
2023-04-18T05:58:13.919Z,96203.19
2023-04-18T06:00:40.723Z,96205.00
2023-04-18T06:03:09.272Z,96209.72
2023-04-18T06:05:37.406Z,96209.28
2023-04-18T06:08:04.974Z,96210.13
2023-04-18T06:10:31.800Z,96208.09
2023-04-18T06:13:02.024Z,96216.00
2023-04-18T06:15:28.840Z,96208.22
2023-04-18T06:17:55.546Z,96219.03
2023-04-18T06:20:22.262Z,96215.94
2023-04-18T06:22:49.096Z,96222.72
2023-04-18T06:25:15.828Z,96221.72
2023-04-18T06:27:43.104Z,96229.97
2023-04-18T06:30:09.929Z,96223.03
2023-04-18T06:32:36.792Z,96225.94
2023-04-18T06:35:03.612Z,96233.59
2023-04-18T06:37:30.240Z,96226.00
2023-04-18T06:39:57.073Z,96233.53
2023-04-18T06:42:23.546Z,96231.81
2023-04-18T06:44:50.122Z,96231.56
2023-04-18T06:47:24.946Z,96234.16
2023-04-18T06:49:52.417Z,96236.44
2023-04-18T06:52:19.764Z,96237.03
2023-04-18T06:54:48.812Z,96231.38
2023-04-18T06:57:15.398Z,96231.63
2023-04-18T06:59:45.800Z,96226.47
2023-04-18T07:02:12.586Z,96232.38
2023-04-18T07:04:39.346Z,96232.63
2023-04-18T07:07:05.972Z,96230.84
2023-04-18T07:09:33.527Z,96232.53
2023-04-18T07:12:00.071Z,96227.06
2023-04-18T07:14:27.020Z,96233.78
2023-04-18T07:16:56.783Z,96234.84
2023-04-18T07:19:23.349Z,96232.16
2023-04-18T07:21:50.867Z,96237.91
2023-04-18T07:24:19.539Z,96233.50
2023-04-18T07:26:47.908Z,96228.13
2023-04-18T07:29:14.964Z,96233.03
2023-04-18T07:31:41.416Z,96229.75
2023-04-18T07:34:08.013Z,96225.72
2023-04-18T07:36:34.654Z,96232.94
2023-04-18T07:39:15.387Z,96226.19
2023-04-18T07:41:42.353Z,96226.44
2023-04-18T07:44:11.236Z,96229.22
2023-04-18T07:46:38.311Z,96225.50
2023-04-18T07:49:04.880Z,96218.69
2023-04-18T07:51:31.709Z,96223.28
2023-04-18T07:53:58.257Z,96216.84
2023-04-18T07:56:24.924Z,96227.06
2023-04-18T07:58:52.352Z,96224.91
2023-04-18T08:01:19.078Z,96225.78
2023-04-18T08:03:45.755Z,96219.41
2023-04-18T08:06:14.402Z,96218.59
2023-04-18T08:08:41.007Z,96215.88
2023-04-18T08:11:08.845Z,96216.50
2023-04-18T08:13:38.107Z,96218.34
2023-04-18T08:16:04.719Z,96211.94
2023-04-18T08:18:33.656Z,96205.16
2023-04-18T08:21:03.020Z,96209.25
2023-04-18T08:23:29.844Z,96208.94
2023-04-18T08:25:56.624Z,96214.41
2023-04-18T08:28:26.951Z,96208.47
2023-04-18T08:30:53.672Z,96210.69
2023-04-18T08:33:23.636Z,96215.16
2023-04-18T08:35:50.498Z,96216.00
2023-04-18T08:38:17.177Z,96220.56
2023-04-18T08:40:45.213Z,96217.56
2023-04-18T08:43:11.836Z,96215.88
2023-04-18T08:45:38.562Z,96212.06
2023-04-18T08:48:10.028Z,96212.63
2023-04-18T08:50:36.609Z,96213.72
2023-04-18T08:53:03.197Z,96215.09
2023-04-18T08:55:29.735Z,96215.66
2023-04-18T08:57:56.312Z,96219.97
2023-04-18T09:00:22.943Z,96202.69
2023-04-18T09:02:53.826Z,96208.53
2023-04-18T09:08:01.861Z,96206.38
2023-04-18T09:10:30.184Z,96210.03
2023-04-18T09:12:56.976Z,96201.09
2023-04-18T09:15:23.642Z,96201.88
2023-04-18T09:17:50.190Z,96197.09
2023-04-18T09:20:17.057Z,96204.47
2023-04-18T09:22:44.316Z,96210.47
2023-04-18T09:25:10.970Z,96199.91
2023-04-18T09:27:38.552Z,96205.69
2023-04-18T09:30:05.485Z,96210.84
2023-04-18T09:32:31.994Z,96200.19
2023-04-18T09:34:58.624Z,96202.88
2023-04-18T09:37:25.397Z,96199.94
2023-04-18T09:39:52.699Z,96205.75
2023-04-18T09:42:19.261Z,96203.97
2023-04-18T09:48:05.582Z,96209.06
2023-04-18T10:09:37.835Z,96203.34
2023-04-18T10:12:04.398Z,96202.25
2023-04-18T10:14:31.123Z,96201.28
2023-04-18T10:16:57.720Z,96194.03
2023-04-18T10:19:24.322Z,96201.84
2023-04-18T10:21:51.311Z,96199.72
2023-04-18T10:24:18.254Z,96206.22
2023-04-18T10:26:48.083Z,96196.47
2023-04-18T10:29:14.815Z,96194.84
2023-04-18T10:31:42.471Z,96191.13
2023-04-18T10:34:09.166Z,96198.41
2023-04-18T10:36:36.577Z,96193.50
2023-04-18T10:39:06.613Z,96188.25
2023-04-18T10:41:33.232Z,96189.72
2023-04-18T10:43:59.832Z,96185.16
2023-04-18T10:46:32.525Z,96180.97
2023-04-18T10:48:59.673Z,96184.03
2023-04-18T10:51:26.288Z,96180.06
2023-04-18T10:53:53.619Z,96175.63
2023-04-18T10:56:24.732Z,96176.25
2023-04-18T10:58:51.571Z,96168.72
2023-04-18T11:01:18.303Z,96175.00
2023-04-18T11:03:45.652Z,96168.84
2023-04-18T11:06:12.251Z,96178.16
2023-04-18T11:11:36.979Z,96160.44
2023-04-18T11:14:03.560Z,96162.81
2023-04-18T11:16:30.230Z,96150.41
2023-04-18T11:18:57.079Z,96167.63
2023-04-18T11:21:24.348Z,96149.13
2023-04-18T11:23:55.420Z,96159.66
2023-04-18T11:26:21.956Z,96155.63
2023-04-18T11:28:48.743Z,96151.41
2023-04-18T11:31:17.914Z,96159.03
2023-04-18T11:33:44.522Z,96158.38
2023-04-18T11:36:11.060Z,96155.59
2023-04-18T11:38:42.558Z,96148.38
2023-04-18T11:41:09.104Z,96148.34
2023-04-18T11:43:39.006Z,96148.56
2023-04-18T11:46:06.683Z,96142.91
2023-04-18T11:48:33.333Z,96145.75
2023-04-18T11:51:00.455Z,96138.44
2023-04-18T11:53:27.031Z,96137.91
2023-04-18T11:55:53.604Z,96136.03
2023-04-18T11:58:20.218Z,96136.44
2023-04-18T12:00:47.053Z,96146.47
2023-04-18T12:03:14.785Z,96141.84
2023-04-18T12:05:42.231Z,96140.53
2023-04-18T12:08:09.344Z,96148.72
2023-04-18T12:10:35.959Z,96150.53
2023-04-18T12:13:03.556Z,96139.59
2023-04-18T12:15:32.338Z,96135.91
2023-04-18T12:18:01.438Z,96134.78
2023-04-18T12:20:29.281Z,96138.03
2023-04-18T12:22:55.848Z,96134.78
2023-04-18T12:25:25.014Z,96130.66
2023-04-18T12:27:54.514Z,96131.22
2023-04-18T12:30:23.708Z,96127.13
2023-04-18T12:32:50.378Z,96131.28
2023-04-18T12:35:17.749Z,96129.81
2023-04-18T12:37:44.452Z,96134.47
2023-04-18T12:40:11.058Z,96138.25
2023-04-18T12:42:38.519Z,96130.19
2023-04-18T12:45:05.097Z,96132.09
2023-04-18T12:47:31.729Z,96129.63
2023-04-18T12:49:58.561Z,96127.50
2023-04-18T12:52:25.149Z,96128.31
2023-04-18T12:54:52.036Z,96129.25
2023-04-18T12:57:18.895Z,96123.50
2023-04-18T12:59:45.539Z,96123.16
2023-04-18T13:02:12.169Z,96122.34
2023-04-18T13:04:40.734Z,96127.31
2023-04-18T13:07:10.383Z,96129.03
2023-04-18T13:09:39.164Z,96124.66
2023-04-18T13:12:05.794Z,96131.13
2023-04-18T13:14:33.159Z,96126.88
2023-04-18T13:16:59.819Z,96129.00
2023-04-18T13:19:27.293Z,96124.03
2023-04-18T13:21:54.799Z,96123.66
2023-04-18T13:24:23.799Z,96122.59
2023-04-18T13:26:50.960Z,96118.13
2023-04-18T13:29:18.116Z,96116.78
2023-04-18T13:31:45.019Z,96116.41
2023-04-18T13:34:11.713Z,96115.31
2023-04-18T13:36:38.563Z,96114.75
2023-04-18T13:39:05.581Z,96106.38
2023-04-18T13:41:32.083Z,96111.16
2023-04-18T13:43:58.916Z,96099.22
2023-04-18T13:46:25.592Z,96105.41
2023-04-18T13:48:52.199Z,96108.47
2023-04-18T13:51:18.948Z,96098.44
2023-04-18T13:53:45.613Z,96099.72
2023-04-18T13:56:12.254Z,96103.13
2023-04-18T13:58:39.712Z,96101.28
2023-04-18T14:01:06.928Z,96105.09
2023-04-18T14:03:35.422Z,96096.50
2023-04-18T14:06:04.326Z,96096.91
2023-04-18T14:08:30.868Z,96100.84
2023-04-18T14:10:57.505Z,96094.97
2023-04-18T14:13:24.337Z,96098.19
2023-04-18T14:15:52.245Z,96101.31
2023-04-18T14:18:18.858Z,96088.38
2023-04-18T14:20:47.848Z,96088.16
2023-04-18T14:23:14.322Z,96092.06
2023-04-18T14:25:43.291Z,96093.69
2023-04-18T14:28:10.156Z,96093.06
2023-04-18T14:30:37.235Z,96096.66
2023-04-18T14:33:03.928Z,96092.44
2023-04-18T14:35:30.958Z,96087.06
2023-04-18T14:37:59.199Z,96092.31
2023-04-18T14:40:25.831Z,96087.63
2023-04-18T14:42:52.397Z,96093.19
2023-04-18T14:45:19.234Z,96093.59
2023-04-18T14:47:46.026Z,96088.63
2023-04-18T14:50:12.778Z,96098.53
2023-04-18T14:52:41.551Z,96087.38
2023-04-18T14:55:08.204Z,96093.44
2023-04-18T14:57:35.074Z,96095.97
2023-04-18T15:00:05.112Z,96089.31
2023-04-18T15:02:32.297Z,96089.59
2023-04-18T15:04:59.218Z,96086.47
2023-04-18T15:07:26.193Z,96088.00
2023-04-18T15:09:53.027Z,96089.41
2023-04-18T15:12:19.631Z,96085.72
2023-04-18T15:17:56.194Z,96078.94
2023-04-18T15:20:25.423Z,96079.31
2023-04-18T15:22:52.082Z,96084.13
2023-04-18T15:25:21.644Z,96086.78
2023-04-18T15:27:48.245Z,96082.56
2023-04-18T15:30:16.032Z,96089.03
2023-04-18T15:32:42.944Z,96085.97
2023-04-18T15:35:09.506Z,96093.53
2023-04-18T15:37:36.084Z,96097.41
2023-04-18T15:40:02.641Z,96092.47
2023-04-18T15:42:31.667Z,96096.28
2023-04-18T15:44:58.695Z,96098.03
2023-04-18T15:47:25.247Z,96096.91
2023-04-18T15:49:52.546Z,96097.19
2023-04-18T15:52:19.024Z,96099.19
2023-04-18T15:54:46.590Z,96102.81
2023-04-18T15:57:13.924Z,96094.44
2023-04-18T15:59:40.463Z,96107.13
2023-04-18T16:02:07.142Z,96093.22
2023-04-18T16:04:37.738Z,96104.88
2023-04-18T16:07:05.278Z,96115.16
2023-04-18T16:09:31.937Z,96098.19
2023-04-18T16:11:58.488Z,96095.97
2023-04-18T16:14:25.092Z,96100.53
2023-04-18T16:16:51.664Z,96101.84
2023-04-18T16:19:21.234Z,96101.78
2023-04-18T16:21:47.756Z,96111.47
2023-04-18T16:24:15.124Z,96106.38
2023-04-18T16:26:42.120Z,96113.31
2023-04-18T16:29:09.023Z,96105.63
2023-04-18T16:31:35.853Z,96112.50
2023-04-18T16:34:05.519Z,96101.28
2023-04-18T16:36:32.374Z,96104.84
2023-04-18T16:38:59.401Z,96100.88
2023-04-18T16:41:25.963Z,96104.59
2023-04-18T16:43:52.668Z,96099.84
2023-04-18T16:46:19.262Z,96099.09
2023-04-18T16:48:46.750Z,96095.69
2023-04-18T16:51:13.528Z,96110.31
2023-04-18T16:53:40.122Z,96108.81
2023-04-18T16:56:06.980Z,96100.84
2023-04-18T16:58:33.887Z,96094.34
2023-04-18T17:01:00.570Z,96099.50
2023-04-18T17:03:27.480Z,96100.78
2023-04-18T17:05:54.243Z,96111.75
2023-04-18T17:08:20.786Z,96107.50
2023-04-18T17:10:47.369Z,96108.91
2023-04-18T17:13:14.251Z,96113.97
2023-04-18T17:15:41.096Z,96114.66
2023-04-18T17:18:09.933Z,96109.19
2023-04-18T17:20:36.517Z,96111.63
2023-04-18T17:23:03.206Z,96104.09
2023-04-18T17:25:30.163Z,96119.03
2023-04-18T17:27:56.732Z,96114.75
2023-04-18T17:30:24.452Z,96123.56
2023-04-18T17:32:51.358Z,96112.31
2023-04-18T17:35:18.924Z,96114.09
2023-04-18T17:37:45.753Z,96132.09
2023-04-18T17:40:12.271Z,96131.47
2023-04-18T17:42:40.995Z,96123.28
2023-04-18T17:45:09.765Z,96129.75
2023-04-18T17:47:36.460Z,96135.06
2023-04-18T17:50:03.209Z,96127.28
2023-04-18T17:52:30.557Z,96137.75
2023-04-18T17:54:57.528Z,96135.25
2023-04-18T17:57:24.395Z,96144.22
2023-04-18T17:59:51.249Z,96127.13
2023-04-18T18:02:17.882Z,96137.81
2023-04-18T18:04:44.660Z,96128.63
2023-04-18T18:07:11.339Z,96141.88
2023-04-18T18:09:38.228Z,96140.16
2023-04-18T18:12:04.830Z,96142.63
2023-04-18T18:14:32.901Z,96139.97
2023-04-18T18:16:59.763Z,96146.34
2023-04-18T18:19:26.228Z,96153.50
2023-04-18T18:21:52.818Z,96154.47
2023-04-18T18:24:19.731Z,96160.81
2023-04-18T18:26:48.270Z,96149.97
2023-04-18T18:29:17.174Z,96143.38
2023-04-18T18:31:43.922Z,96152.81
2023-04-18T18:34:10.836Z,96156.16
2023-04-18T18:36:37.839Z,96157.06
2023-04-18T18:39:05.310Z,96163.31
2023-04-18T18:41:31.933Z,96158.56
2023-04-18T18:43:58.500Z,96176.56
2023-04-18T18:46:25.396Z,96169.88
2023-04-18T18:48:52.290Z,96163.44
2023-04-18T18:51:18.863Z,96171.50
2023-04-18T18:53:46.463Z,96188.59
2023-04-18T18:56:13.927Z,96184.19
2023-04-18T18:58:40.767Z,96188.72
2023-04-18T19:01:07.350Z,96194.53
2023-04-18T19:03:35.125Z,96191.91
2023-04-18T19:06:01.761Z,96202.25
2023-04-18T19:08:31.121Z,96197.19
2023-04-18T19:10:57.725Z,96197.19
2023-04-18T19:13:24.265Z,96196.09
2023-04-18T19:15:50.923Z,96196.19
2023-04-18T19:24:24.402Z,96195.38
2023-04-18T19:26:51.161Z,96209.00
2023-04-18T19:29:17.679Z,96212.91
2023-04-18T19:31:44.341Z,96207.31
2023-04-18T19:34:10.899Z,96227.81
2023-04-18T19:36:37.406Z,96206.88
2023-04-18T19:39:04.121Z,96218.19
2023-04-18T19:41:30.797Z,96213.13
2023-04-18T19:43:59.826Z,96204.13
2023-04-18T19:46:26.603Z,96201.78
2023-04-18T19:48:53.177Z,96213.34
2023-04-18T19:51:20.481Z,96212.25
2023-04-18T19:53:48.069Z,96212.78
2023-04-18T19:56:14.687Z,96214.59
2023-04-18T19:58:41.191Z,96244.69
2023-04-18T20:01:07.773Z,96209.38
2023-04-18T20:03:34.649Z,96221.13
2023-04-18T20:06:01.388Z,96219.31
2023-04-18T20:08:27.844Z,96209.63
2023-04-18T20:10:54.708Z,96208.88
2023-04-18T20:13:21.201Z,96210.66
2023-04-18T20:15:49.047Z,96216.81
2023-04-18T20:18:15.855Z,96218.63
2023-04-18T20:20:42.710Z,96211.19
2023-04-18T20:23:11.386Z,96216.38
2023-04-18T20:25:37.922Z,96218.13
2023-04-18T20:28:04.413Z,96217.81
2023-04-18T20:30:31.795Z,96213.59
2023-04-18T20:32:58.368Z,96216.66
2023-04-18T20:35:24.975Z,96212.34
2023-04-18T20:37:51.787Z,96214.44
2023-04-18T20:40:18.316Z,96239.66
2023-04-18T20:42:45.039Z,96217.88
2023-04-18T20:45:11.686Z,96215.03
2023-04-18T20:47:39.380Z,96222.69
2023-04-18T20:50:05.899Z,96216.72
2023-04-18T20:52:32.350Z,96225.22
2023-04-18T20:54:59.206Z,96222.81
2023-04-18T20:57:25.986Z,96233.13
2023-04-18T20:59:52.904Z,96223.47
2023-04-18T21:02:21.510Z,96221.22
2023-04-18T21:04:48.516Z,96224.19
2023-04-18T21:07:15.153Z,96227.31
2023-04-18T21:09:41.711Z,96228.41
2023-04-18T21:12:08.229Z,96234.94
2023-04-18T21:14:34.801Z,96238.22
2023-04-18T21:17:01.420Z,96250.50
2023-04-18T21:19:28.071Z,96262.34
2023-04-18T21:21:55.729Z,96261.56
2023-04-18T21:24:22.585Z,96280.00
2023-04-18T21:26:51.246Z,96267.31
2023-04-18T21:29:17.695Z,96270.38
2023-04-18T21:31:44.265Z,96278.44
2023-04-18T21:34:10.870Z,96278.25
2023-04-18T21:36:39.754Z,96263.94
2023-04-18T21:39:06.568Z,96281.28
2023-04-18T21:41:35.291Z,96285.13
2023-04-18T21:44:02.115Z,96287.06
2023-04-18T21:46:28.686Z,96289.78
2023-04-18T21:48:55.512Z,96293.78
2023-04-18T21:51:21.999Z,96303.03
2023-04-18T21:53:48.496Z,96296.28
2023-04-18T21:56:17.272Z,96309.25
2023-04-18T21:58:43.763Z,96311.41
2023-04-18T22:01:17.685Z,96306.78
2023-04-18T22:03:47.314Z,96305.91
2023-04-18T22:06:23.900Z,96312.09
2023-04-18T22:08:54.788Z,96303.09
2023-04-18T22:11:24.349Z,96306.88
2023-04-18T22:13:51.174Z,96307.88
2023-04-18T22:16:19.033Z,96299.09
2023-04-18T22:18:48.393Z,96305.88
2023-04-18T22:21:15.303Z,96304.06
2023-04-18T22:23:42.876Z,96318.22
2023-04-18T22:26:09.722Z,96323.78
2023-04-18T22:28:40.177Z,96324.56
2023-04-18T22:31:07.017Z,96327.88
2023-04-18T22:33:33.729Z,96322.44
2023-04-18T22:36:00.577Z,96318.78
2023-04-18T22:38:27.134Z,96321.41
2023-04-18T22:40:53.704Z,96318.34
2023-04-18T22:43:20.214Z,96332.88
2023-04-18T22:45:46.833Z,96326.44
2023-04-18T22:48:13.667Z,96329.38
2023-04-18T22:50:40.283Z,96326.75
2023-04-18T22:53:07.074Z,96330.63
2023-04-18T22:55:33.658Z,96343.41
2023-04-18T22:58:00.117Z,96340.66
2023-04-18T23:00:29.167Z,96338.09
2023-04-18T23:02:55.854Z,96337.66
2023-04-18T23:05:22.435Z,96340.00
2023-04-18T23:07:49.417Z,96348.66
2023-04-18T23:10:15.952Z,96346.56
2023-04-18T23:12:42.511Z,96350.53
2023-04-18T23:15:09.915Z,96346.44
2023-04-18T23:17:36.606Z,96350.84
2023-04-18T23:20:10.707Z,96353.31
2023-04-18T23:22:42.194Z,96357.75
2023-04-18T23:25:09.220Z,96357.06
2023-04-18T23:27:35.889Z,96358.91
2023-04-18T23:30:05.033Z,96349.31
2023-04-18T23:32:34.906Z,96364.56
2023-04-18T23:35:05.050Z,96357.66
2023-04-18T23:37:36.230Z,96364.94
2023-04-18T23:40:05.696Z,96363.72
2023-04-18T23:42:33.174Z,96362.56
2023-04-18T23:44:59.944Z,96362.25
2023-04-18T23:47:26.470Z,96366.19
2023-04-18T23:49:54.723Z,96366.56
2023-04-18T23:58:23.001Z,96371.56
